createdAt,value
2019-05-18T00:00:38.287Z,4.03
2019-05-18T00:03:06.615Z,4.47
2019-05-18T00:05:34.892Z,4.17
2019-05-18T00:08:03.149Z,4.10
2019-05-18T00:10:31.439Z,4.07
2019-05-18T00:12:59.992Z,4.37
2019-05-18T00:15:28.302Z,4.20
2019-05-18T00:17:56.588Z,4.07
2019-05-18T00:20:24.853Z,3.73
2019-05-18T00:22:53.130Z,4.00
2019-05-18T00:25:21.400Z,4.37
2019-05-18T00:27:49.664Z,4.27
2019-05-18T00:30:17.925Z,3.90
2019-05-18T00:32:46.197Z,4.00
2019-05-18T00:35:16.600Z,4.33
2019-05-18T00:37:44.905Z,4.40
2019-05-18T00:40:13.298Z,4.60
2019-05-18T00:42:41.623Z,4.13
2019-05-18T00:45:09.901Z,4.13
2019-05-18T00:47:41.765Z,4.00
2019-05-18T00:50:08.441Z,4.00
2019-05-18T00:52:36.780Z,4.50
2019-05-18T00:55:07.496Z,4.27
2019-05-18T00:57:35.819Z,4.50
2019-05-18T01:00:08.969Z,3.83
2019-05-18T01:02:37.255Z,4.20
2019-05-18T01:05:05.521Z,4.03
2019-05-18T01:07:34.073Z,3.63
2019-05-18T01:10:02.353Z,4.27
2019-05-18T01:12:30.616Z,4.13
2019-05-18T01:14:58.916Z,4.33
2019-05-18T01:17:27.194Z,4.30
2019-05-18T01:19:55.765Z,3.97
2019-05-18T01:22:24.090Z,4.10
2019-05-18T01:24:52.361Z,3.97
2019-05-18T01:27:20.621Z,4.43
2019-05-18T01:29:48.881Z,4.10
2019-05-18T01:32:17.145Z,4.00
2019-05-18T01:34:45.408Z,3.90
2019-05-18T01:37:14.001Z,4.40
2019-05-18T01:39:42.329Z,3.73
2019-05-18T01:42:10.810Z,3.63
2019-05-18T01:44:39.177Z,4.13
2019-05-18T01:47:07.441Z,4.03
2019-05-18T01:49:36.001Z,4.00
2019-05-18T01:52:04.348Z,4.10
2019-05-18T01:54:32.615Z,4.20
2019-05-18T01:57:00.912Z,4.33
2019-05-18T01:59:29.326Z,3.40
2019-05-18T02:01:57.562Z,4.30
2019-05-18T02:04:25.882Z,3.90
2019-05-18T02:06:54.119Z,3.90
2019-05-18T02:09:22.393Z,4.10
2019-05-18T02:11:50.634Z,3.93
2019-05-18T02:14:18.940Z,4.40
2019-05-18T02:16:47.537Z,3.80
2019-05-18T02:19:15.804Z,4.10
2019-05-18T02:21:44.055Z,4.20
2019-05-18T02:24:12.696Z,4.10
2019-05-18T02:26:40.954Z,4.30
2019-05-18T02:29:09.541Z,3.63
2019-05-18T02:31:37.798Z,4.20
2019-05-18T02:34:06.120Z,4.27
2019-05-18T02:36:34.506Z,4.00
2019-05-18T02:39:04.488Z,4.20
2019-05-18T02:41:32.766Z,4.30
2019-05-18T02:44:01.047Z,4.47
2019-05-18T02:46:29.295Z,3.87
2019-05-18T02:48:57.551Z,4.10
2019-05-18T02:51:26.194Z,4.30
2019-05-18T02:53:55.240Z,4.20
2019-05-18T02:56:23.874Z,4.10
2019-05-18T02:58:52.130Z,3.77
2019-05-18T03:01:20.403Z,4.03
2019-05-18T03:03:48.690Z,4.10
2019-05-18T03:06:17.003Z,3.83
2019-05-18T03:08:45.281Z,3.70
2019-05-18T03:11:13.575Z,4.13
2019-05-18T03:13:42.105Z,4.00
2019-05-18T03:16:10.404Z,3.83
2019-05-18T03:18:38.680Z,4.37
2019-05-18T03:21:06.972Z,3.97
2019-05-18T03:23:35.260Z,4.07
2019-05-18T03:26:03.527Z,3.90
2019-05-18T03:28:31.791Z,4.20
2019-05-18T03:31:00.034Z,4.30
2019-05-18T03:33:30.241Z,4.20
2019-05-18T03:35:58.677Z,4.20
2019-05-18T03:38:27.229Z,4.17
2019-05-18T03:40:55.558Z,3.90
2019-05-18T03:43:23.800Z,4.37
2019-05-18T03:45:52.062Z,3.70
2019-05-18T03:48:20.649Z,3.87
2019-05-18T03:50:49.246Z,4.10
2019-05-18T03:53:18.310Z,4.17
2019-05-18T03:55:46.840Z,4.17
2019-05-18T03:58:15.096Z,3.80
2019-05-18T04:00:44.007Z,3.70
2019-05-18T04:03:12.249Z,3.87
2019-05-18T04:05:40.977Z,4.00
2019-05-18T04:08:09.225Z,4.00
2019-05-18T04:10:37.543Z,4.47
2019-05-18T04:13:05.794Z,4.00
2019-05-18T04:15:34.057Z,4.03
2019-05-18T04:18:02.627Z,4.10
2019-05-18T04:20:30.939Z,4.00
2019-05-18T04:22:59.280Z,4.00
2019-05-18T04:25:27.521Z,4.40
2019-05-18T04:27:56.034Z,3.90
2019-05-18T04:30:24.294Z,4.10
2019-05-18T04:32:52.732Z,3.70
2019-05-18T04:35:21.155Z,4.20
2019-05-18T04:37:49.597Z,4.27
2019-05-18T04:40:17.848Z,4.00
2019-05-18T04:42:46.098Z,4.10
2019-05-18T04:45:14.370Z,3.90
2019-05-18T04:47:42.697Z,4.20
2019-05-18T04:50:10.971Z,4.07
2019-05-18T04:52:39.627Z,4.13
2019-05-18T04:55:07.895Z,4.20
2019-05-18T04:57:36.145Z,4.00
2019-05-18T05:00:07.686Z,4.30
2019-05-18T05:02:36.194Z,3.93
2019-05-18T05:05:05.486Z,4.03
2019-05-18T05:07:33.797Z,4.20
2019-05-18T05:10:04.728Z,4.30
2019-05-18T05:12:32.095Z,4.40
2019-05-18T05:15:00.678Z,4.07
2019-05-18T05:17:28.918Z,4.30
2019-05-18T05:19:57.195Z,3.60
2019-05-18T05:22:25.731Z,4.40
2019-05-18T05:24:54.282Z,4.60
2019-05-18T05:27:22.593Z,3.90
2019-05-18T05:29:50.931Z,3.93
2019-05-18T05:32:19.235Z,4.17
2019-05-18T05:34:47.801Z,4.40
2019-05-18T05:37:16.049Z,3.97
2019-05-18T05:39:44.335Z,4.13
2019-05-18T05:42:12.642Z,4.60
2019-05-18T05:44:40.926Z,3.97
2019-05-18T05:47:09.253Z,4.57
2019-05-18T05:49:37.527Z,4.27
2019-05-18T05:52:05.778Z,4.70
2019-05-18T05:54:34.331Z,4.43
2019-05-18T05:57:02.578Z,4.40
2019-05-18T05:59:30.921Z,4.40
2019-05-18T06:01:59.459Z,4.10
2019-05-18T06:04:27.719Z,4.33
2019-05-18T06:06:55.961Z,4.63
2019-05-18T06:09:24.337Z,4.47
2019-05-18T06:11:52.679Z,4.70
2019-05-18T06:14:20.988Z,4.50
2019-05-18T06:16:49.270Z,4.43
2019-05-18T06:19:17.801Z,4.60
2019-05-18T06:21:46.078Z,4.60
2019-05-18T06:24:14.325Z,5.23
2019-05-18T06:26:42.631Z,4.60
2019-05-18T06:29:10.934Z,5.13
2019-05-18T06:31:39.192Z,5.00
2019-05-18T06:34:07.454Z,4.70
2019-05-18T06:36:35.793Z,4.73
2019-05-18T06:39:06.440Z,4.87
2019-05-18T06:41:34.759Z,4.70
2019-05-18T06:44:03.728Z,4.73
2019-05-18T06:46:32.028Z,4.50
2019-05-18T06:49:00.356Z,4.97
2019-05-18T06:51:28.696Z,5.20
2019-05-18T06:53:56.945Z,4.90
2019-05-18T06:56:25.241Z,5.03
2019-05-18T06:58:53.481Z,5.60
2019-05-18T07:01:21.758Z,5.20
2019-05-18T07:03:50.026Z,5.50
2019-05-18T07:06:18.521Z,5.30
2019-05-18T07:08:46.880Z,5.00
2019-05-18T07:11:15.241Z,5.23
2019-05-18T07:13:43.504Z,5.43
2019-05-18T07:16:11.784Z,5.40
2019-05-18T07:18:40.034Z,5.40
2019-05-18T07:21:21.421Z,5.80
2019-05-18T07:23:38.468Z,5.60
2019-05-18T07:26:07.014Z,5.70
2019-05-18T07:28:35.255Z,5.63
2019-05-18T07:31:03.540Z,6.03
2019-05-18T07:33:31.882Z,5.83
2019-05-18T07:36:00.139Z,6.20
2019-05-18T07:38:28.413Z,5.43
2019-05-18T07:40:56.680Z,5.60
2019-05-18T07:43:24.934Z,5.67
2019-05-18T07:45:53.213Z,5.67
2019-05-18T07:48:21.492Z,6.23
2019-05-18T07:50:49.753Z,5.90
2019-05-18T07:53:17.989Z,5.77
2019-05-18T07:55:46.270Z,6.43
2019-05-18T07:58:14.812Z,5.80
2019-05-18T08:00:43.088Z,6.33
2019-05-18T08:03:11.332Z,5.97
2019-05-18T08:05:39.606Z,6.13
2019-05-18T08:08:08.254Z,6.50
2019-05-18T08:10:37.829Z,6.40
2019-05-18T08:13:06.323Z,6.27
2019-05-18T08:15:34.912Z,6.40
2019-05-18T08:18:03.482Z,5.97
2019-05-18T08:20:31.744Z,6.73
2019-05-18T08:23:00.376Z,5.87
2019-05-18T08:25:28.685Z,5.90
2019-05-18T08:27:56.953Z,6.23
2019-05-18T08:30:25.442Z,5.90
2019-05-18T08:32:53.708Z,6.27
2019-05-18T08:35:22.249Z,6.17
2019-05-18T08:37:50.578Z,6.20
2019-05-18T08:40:18.850Z,5.90
2019-05-18T08:42:47.418Z,6.30
2019-05-18T08:45:15.660Z,6.23
2019-05-18T08:47:43.980Z,7.03
2019-05-18T08:50:12.246Z,6.40
2019-05-18T08:52:40.602Z,6.40
2019-05-18T08:55:08.854Z,7.30
2019-05-18T08:57:37.172Z,10.53
2019-05-18T09:00:05.938Z,11.17
2019-05-18T09:02:34.185Z,10.50
2019-05-18T09:05:04.811Z,9.07
2019-05-18T09:07:32.521Z,9.37
2019-05-18T09:10:01.246Z,8.87
2019-05-18T09:12:30.048Z,9.57
2019-05-18T09:14:58.301Z,9.30
2019-05-18T09:17:26.654Z,9.33
2019-05-18T09:19:54.950Z,13.57
2019-05-18T09:22:23.618Z,9.87
2019-05-18T09:24:51.937Z,9.10
2019-05-18T09:27:20.190Z,9.23
2019-05-18T09:29:48.875Z,9.93
2019-05-18T09:32:17.310Z,9.40
2019-05-18T09:34:45.608Z,10.17
2019-05-18T09:37:13.970Z,9.93
2019-05-18T09:39:42.268Z,10.70
2019-05-18T09:42:10.533Z,12.73
2019-05-18T09:44:38.830Z,11.60
2019-05-18T09:47:07.157Z,12.40
2019-05-18T09:49:35.427Z,10.90
2019-05-18T09:52:03.873Z,11.63
2019-05-18T09:54:32.725Z,11.33
2019-05-18T09:57:00.988Z,10.43
2019-05-18T09:59:29.270Z,12.77
2019-05-18T10:01:57.531Z,11.40
2019-05-18T10:04:25.773Z,12.27
2019-05-18T10:06:54.146Z,10.37
2019-05-18T10:09:22.730Z,9.63
2019-05-18T10:11:51.037Z,10.33
2019-05-18T10:14:19.293Z,10.43
2019-05-18T10:16:47.553Z,11.33
2019-05-18T10:19:15.835Z,14.27
2019-05-18T10:21:44.097Z,12.40
2019-05-18T10:24:12.361Z,12.83
2019-05-18T10:26:40.941Z,15.13
2019-05-18T10:29:09.244Z,11.80
2019-05-18T10:31:37.567Z,13.17
2019-05-18T10:34:05.909Z,13.23
2019-05-18T10:36:34.322Z,13.50
2019-05-18T10:39:02.597Z,14.00
2019-05-18T10:41:30.887Z,11.60
2019-05-18T10:43:59.150Z,11.73
2019-05-18T10:46:27.863Z,13.53
2019-05-18T10:48:56.196Z,12.93
2019-05-18T10:51:24.727Z,14.10
2019-05-18T10:53:53.001Z,13.37
2019-05-18T10:56:21.241Z,14.67
2019-05-18T10:58:49.599Z,13.03
2019-05-18T11:01:17.996Z,12.63
2019-05-18T11:03:46.392Z,13.33
2019-05-18T11:06:14.653Z,16.07
2019-05-18T11:08:42.922Z,13.50
2019-05-18T11:11:11.450Z,13.40
2019-05-18T11:13:40.202Z,11.73
2019-05-18T11:16:08.610Z,12.40
2019-05-18T11:18:37.125Z,12.57
2019-05-18T11:21:05.550Z,13.63
2019-05-18T11:23:43.381Z,14.70
2019-05-18T11:26:04.394Z,12.83
2019-05-18T11:28:32.644Z,13.87
2019-05-18T11:31:01.148Z,15.77
2019-05-18T11:33:29.476Z,15.87
2019-05-18T11:35:57.752Z,13.90
2019-05-18T11:38:26.013Z,13.10
2019-05-18T11:40:54.353Z,14.20
2019-05-18T11:43:22.676Z,11.53
2019-05-18T11:45:50.974Z,12.00
2019-05-18T11:48:19.253Z,12.33
2019-05-18T11:50:47.873Z,12.57
2019-05-18T11:53:16.131Z,12.50
2019-05-18T11:55:44.391Z,12.07
2019-05-18T11:58:13.021Z,17.77
2019-05-18T12:00:41.294Z,20.57
2019-05-18T12:03:09.618Z,13.23
2019-05-18T12:05:37.865Z,10.60
2019-05-18T12:08:06.127Z,11.90
2019-05-18T12:10:34.761Z,9.40
2019-05-18T12:13:03.066Z,9.33
2019-05-18T12:15:31.334Z,8.80
2019-05-18T12:17:59.608Z,9.10
2019-05-18T12:20:28.253Z,10.37
2019-05-18T12:22:56.811Z,10.40
2019-05-18T12:25:25.145Z,11.70
2019-05-18T12:27:53.449Z,9.23
2019-05-18T12:30:21.784Z,8.83
2019-05-18T12:32:50.467Z,8.50
2019-05-18T12:35:18.721Z,9.53
2019-05-18T12:37:46.991Z,9.20
2019-05-18T12:40:17.649Z,8.33
2019-05-18T12:42:45.925Z,9.00
2019-05-18T12:45:14.199Z,9.13
2019-05-18T12:47:42.450Z,8.87
2019-05-18T12:50:10.723Z,7.40
2019-05-18T12:52:38.997Z,7.73
2019-05-18T12:55:07.423Z,7.73
2019-05-18T12:57:36.288Z,7.80
2019-05-18T13:00:08.459Z,8.03
2019-05-18T13:02:37.027Z,8.33
2019-05-18T13:05:05.974Z,7.50
2019-05-18T13:07:34.325Z,6.87
2019-05-18T13:10:03.114Z,7.93
2019-05-18T13:12:31.365Z,7.30
2019-05-18T13:14:59.657Z,6.97
2019-05-18T13:17:27.916Z,6.63
2019-05-18T13:19:56.238Z,7.00
2019-05-18T13:22:24.512Z,7.80
2019-05-18T13:24:52.903Z,6.90
2019-05-18T13:27:21.157Z,7.03
2019-05-18T13:29:49.425Z,6.30
2019-05-18T13:32:17.693Z,8.13
2019-05-18T13:34:45.946Z,6.97
2019-05-18T13:37:14.226Z,6.70
2019-05-18T13:39:42.496Z,7.80
2019-05-18T13:42:11.182Z,7.70
2019-05-18T13:44:39.453Z,7.30
2019-05-18T13:47:07.713Z,7.37
2019-05-18T13:49:35.975Z,7.90
2019-05-18T13:52:04.538Z,7.30
2019-05-18T13:54:32.841Z,7.13
2019-05-18T13:57:01.990Z,6.43
2019-05-18T13:59:30.622Z,7.37
2019-05-18T14:01:58.869Z,7.17
2019-05-18T14:04:27.510Z,7.10
2019-05-18T14:06:56.098Z,6.83
2019-05-18T14:09:24.420Z,7.50
2019-05-18T14:11:52.694Z,8.23
2019-05-18T14:14:20.976Z,8.63
2019-05-18T14:16:49.682Z,12.83
2019-05-18T14:19:18.471Z,11.77
2019-05-18T14:21:46.813Z,11.60
2019-05-18T14:24:15.093Z,9.80
2019-05-18T14:26:43.406Z,9.97
2019-05-18T14:29:11.661Z,10.67
2019-05-18T14:31:39.944Z,9.10
2019-05-18T14:34:08.305Z,8.83
2019-05-18T14:36:36.566Z,9.20
2019-05-18T14:39:06.182Z,9.03
2019-05-18T14:41:34.458Z,7.57
2019-05-18T14:44:03.035Z,8.77
2019-05-18T14:46:31.308Z,8.23
2019-05-18T14:48:59.647Z,7.37
2019-05-18T14:51:28.182Z,8.80
2019-05-18T14:53:56.501Z,8.53
2019-05-18T14:56:25.100Z,9.03
2019-05-18T14:58:53.349Z,7.93
2019-05-18T15:01:21.699Z,7.20
2019-05-18T15:03:49.970Z,7.60
2019-05-18T15:06:18.325Z,6.60
2019-05-18T15:08:46.617Z,8.40
2019-05-18T15:11:15.181Z,9.37
2019-05-18T15:13:43.452Z,8.60
2019-05-18T15:16:11.734Z,9.70
2019-05-18T15:18:40.029Z,9.17
2019-05-18T15:21:08.307Z,9.57
2019-05-18T15:23:36.786Z,9.23
2019-05-18T15:26:05.071Z,15.77
2019-05-18T15:28:33.661Z,11.23
2019-05-18T15:31:02.318Z,11.43
2019-05-18T15:33:30.965Z,10.50
2019-05-18T15:35:59.236Z,11.23
2019-05-18T15:38:27.754Z,10.20
2019-05-18T15:40:56.022Z,8.97
2019-05-18T15:43:24.617Z,9.70
2019-05-18T15:45:52.871Z,9.77
2019-05-18T15:48:21.210Z,10.43
2019-05-18T15:50:49.747Z,9.57
2019-05-18T15:53:18.036Z,9.20
2019-05-18T15:55:46.341Z,9.13
2019-05-18T15:58:14.613Z,9.23
2019-05-18T16:00:42.932Z,9.03
2019-05-18T16:03:11.210Z,9.50
2019-05-18T16:05:39.485Z,9.77
2019-05-18T16:08:08.201Z,12.07
2019-05-18T16:10:36.481Z,10.30
2019-05-18T16:13:04.786Z,10.63
2019-05-18T16:15:33.105Z,10.72
2019-05-18T16:18:01.383Z,11.10
2019-05-18T16:20:29.636Z,10.13
2019-05-18T16:22:57.981Z,10.53
2019-05-18T16:25:26.257Z,10.43
2019-05-18T16:27:54.576Z,10.47
2019-05-18T16:30:22.925Z,9.63
2019-05-18T16:32:51.582Z,9.87
2019-05-18T16:35:19.997Z,9.23
2019-05-18T16:37:48.514Z,9.37
2019-05-18T16:40:16.854Z,9.83
2019-05-18T16:42:46.724Z,9.13
2019-05-18T16:45:15.266Z,9.63
2019-05-18T16:47:43.620Z,9.13
2019-05-18T16:50:12.650Z,9.10
2019-05-18T16:52:41.788Z,9.77
2019-05-18T16:55:10.040Z,9.57
2019-05-18T16:57:38.651Z,9.10
2019-05-18T17:00:15.877Z,8.90
2019-05-18T17:02:43.017Z,9.33
2019-05-18T17:05:12.507Z,9.40
2019-05-18T17:07:40.765Z,9.73
2019-05-18T17:10:09.101Z,8.70
2019-05-18T17:12:37.582Z,8.83
2019-05-18T17:15:07.807Z,9.30
2019-05-18T17:17:36.278Z,8.67
2019-05-18T17:20:05.281Z,8.80
2019-05-18T17:22:33.561Z,8.90
2019-05-18T17:25:01.809Z,9.27
2019-05-18T17:27:30.362Z,8.80
2019-05-18T17:29:58.616Z,9.27
2019-05-18T17:32:27.225Z,9.33
2019-05-18T17:34:55.470Z,9.40
2019-05-18T17:37:23.758Z,9.07
2019-05-18T17:39:52.036Z,8.83
2019-05-18T17:42:20.289Z,9.83
2019-05-18T17:44:48.598Z,9.17
2019-05-18T17:47:16.918Z,8.80
2019-05-18T17:49:45.185Z,9.43
2019-05-18T17:52:13.501Z,9.47
2019-05-18T17:54:42.030Z,9.40
2019-05-18T17:57:10.315Z,9.33
2019-05-18T17:59:38.569Z,8.77
2019-05-18T18:02:06.849Z,8.97
2019-05-18T18:04:35.094Z,9.53
2019-05-18T18:07:03.387Z,9.30
2019-05-18T18:09:32.077Z,9.00
2019-05-18T18:12:00.685Z,9.53
2019-05-18T18:14:28.933Z,10.30
2019-05-18T18:16:57.210Z,9.67
2019-05-18T18:19:25.476Z,9.60
2019-05-18T18:21:53.764Z,8.93
2019-05-18T18:24:22.046Z,9.53
2019-05-18T18:26:50.348Z,8.93
2019-05-18T18:29:18.618Z,8.83
2019-05-18T18:31:46.874Z,9.87
2019-05-18T18:34:15.469Z,9.47
2019-05-18T18:36:43.753Z,9.83
2019-05-18T18:39:12.177Z,10.70
2019-05-18T18:41:40.705Z,9.57
2019-05-18T18:44:08.962Z,10.03
2019-05-18T18:46:37.567Z,9.90
2019-05-18T18:49:05.874Z,9.60
2019-05-18T18:51:34.198Z,10.03
2019-05-18T18:54:02.813Z,10.17
2019-05-18T18:56:31.133Z,9.97
2019-05-18T18:58:59.409Z,10.80
2019-05-18T19:01:27.693Z,10.27
2019-05-18T19:03:56.067Z,10.67
2019-05-18T19:06:24.435Z,10.00
2019-05-18T19:08:52.782Z,10.13
2019-05-18T19:11:21.369Z,10.07
2019-05-18T19:13:49.785Z,10.03
2019-05-18T19:16:18.050Z,9.83
2019-05-18T19:18:46.328Z,9.77
2019-05-18T19:21:14.598Z,10.47
2019-05-18T19:23:42.865Z,10.53
2019-05-18T19:26:11.171Z,11.23
2019-05-18T19:28:39.851Z,11.13
2019-05-18T19:31:08.153Z,11.70
2019-05-18T19:33:36.758Z,12.60
2019-05-18T19:36:05.030Z,12.93
2019-05-18T19:38:33.633Z,13.20
2019-05-18T19:41:01.958Z,14.60
2019-05-18T19:43:30.454Z,14.90
2019-05-18T19:45:58.725Z,15.60
2019-05-18T19:48:26.991Z,15.80
2019-05-18T19:50:55.625Z,16.37
2019-05-18T19:53:23.915Z,16.60
2019-05-18T19:55:52.245Z,15.73
2019-05-18T19:58:20.526Z,16.10
2019-05-18T20:00:48.832Z,17.73
2019-05-18T20:03:17.446Z,16.77
2019-05-18T20:05:46.128Z,17.00
2019-05-18T20:08:14.636Z,17.07
2019-05-18T20:10:43.921Z,16.10
2019-05-18T20:13:12.194Z,17.43
2019-05-18T20:15:40.762Z,16.00
2019-05-18T20:18:09.446Z,16.30
2019-05-18T20:20:37.705Z,16.57
2019-05-18T20:23:08.155Z,17.30
2019-05-18T20:25:35.951Z,16.13
2019-05-18T20:28:04.505Z,17.57
2019-05-18T20:30:32.762Z,15.47
2019-05-18T20:33:01.046Z,16.17
2019-05-18T20:35:29.301Z,16.23
2019-05-18T20:37:57.563Z,14.73
2019-05-18T20:40:26.201Z,16.33
2019-05-18T20:42:54.470Z,16.00
2019-05-18T20:45:22.776Z,15.57
2019-05-18T20:47:51.106Z,15.27
2019-05-18T20:50:19.444Z,14.93
2019-05-18T20:52:47.728Z,15.20
2019-05-18T20:55:16.003Z,15.83
2019-05-18T20:57:44.261Z,15.70
2019-05-18T21:00:13.804Z,15.60
2019-05-18T21:02:42.082Z,14.93
2019-05-18T21:05:10.422Z,14.80
2019-05-18T21:07:38.711Z,15.37
2019-05-18T21:10:07.364Z,14.90
2019-05-18T21:12:35.722Z,15.80
2019-05-18T21:15:06.799Z,15.28
2019-05-18T21:17:35.619Z,15.77
2019-05-18T21:20:04.780Z,15.53
2019-05-18T21:22:33.112Z,16.30
2019-05-18T21:25:01.404Z,15.87
2019-05-18T21:27:29.766Z,15.87
2019-05-18T21:29:58.045Z,16.20
2019-05-18T21:32:26.321Z,15.93
2019-05-18T21:34:54.621Z,16.50
2019-05-18T21:37:23.253Z,16.17
2019-05-18T21:39:51.646Z,16.97
2019-05-18T21:42:19.897Z,16.77
2019-05-18T21:44:48.169Z,17.30
2019-05-18T21:47:17.022Z,17.27
2019-05-18T21:49:45.296Z,17.42
2019-05-18T21:52:14.885Z,17.60
2019-05-18T21:54:43.507Z,17.85
2019-05-18T21:57:12.097Z,17.98
2019-05-18T21:59:40.492Z,18.27
2019-05-18T22:02:08.968Z,17.50
2019-05-18T22:04:37.277Z,19.42
2019-05-18T22:07:05.539Z,18.70
2019-05-18T22:09:33.914Z,19.70
2019-05-18T22:12:02.242Z,19.87
2019-05-18T22:14:30.523Z,20.37
2019-05-18T22:16:58.784Z,19.52
2019-05-18T22:19:27.040Z,20.08
2019-05-18T22:21:55.321Z,20.45
2019-05-18T22:24:23.685Z,20.75
2019-05-18T22:26:51.978Z,21.53
2019-05-18T22:29:20.235Z,20.65
2019-05-18T22:31:48.521Z,21.27
2019-05-18T22:34:16.779Z,21.77
2019-05-18T22:36:45.027Z,22.52
2019-05-18T22:39:13.310Z,22.43
2019-05-18T22:41:41.641Z,22.90
2019-05-18T22:44:10.119Z,22.87
2019-05-18T22:46:38.385Z,22.15
2019-05-18T22:49:06.652Z,22.37
2019-05-18T22:51:34.921Z,23.73
2019-05-18T22:54:03.321Z,21.77
2019-05-18T22:56:31.873Z,22.40
2019-05-18T22:59:00.161Z,22.35
2019-05-18T23:01:28.446Z,22.62
2019-05-18T23:03:56.703Z,22.45
2019-05-18T23:06:24.990Z,22.27
2019-05-18T23:08:53.566Z,22.02
2019-05-18T23:11:21.907Z,21.80
2019-05-18T23:13:50.183Z,21.97
2019-05-18T23:16:18.457Z,21.85
2019-05-18T23:18:56.360Z,20.32
2019-05-18T23:21:16.712Z,20.92
2019-05-18T23:23:44.949Z,20.02
2019-05-18T23:26:13.288Z,19.87
2019-05-18T23:28:41.634Z,18.65
2019-05-18T23:31:09.910Z,18.67
2019-05-18T23:33:38.489Z,17.90
2019-05-18T23:36:06.762Z,17.80
2019-05-18T23:38:35.106Z,17.70
2019-05-18T23:41:03.731Z,16.85
2019-05-18T23:43:31.992Z,17.23
2019-05-18T23:46:00.577Z,16.23
2019-05-18T23:48:28.866Z,16.23
2019-05-18T23:50:57.141Z,15.08
2019-05-18T23:53:25.421Z,15.43
2019-05-18T23:55:53.726Z,14.58
2019-05-18T23:58:22.005Z,14.45
